Time;durP1;ratioP1;P1;durP2;ratioP2;P2;SDS_P1;SDS_P2;PMS_P1;PMS_P2;Temp;Humidity;BMP_temperature;BMP_pressure;BME280_temperature;BME280_humidity;BME280_pressure;Samples;Min_cycle;Max_cycle;Signal;HPM_P1;HPM_P2
2021/12/23 00:01:26;;;;;;;28.05;15.50;;;-0.90;99.90;;;;;;5072383;28;20272;-75
2021/12/23 00:03:53;;;;;;;27.40;15.85;;;-1.00;99.90;;;;;;5072703;28;20672;-75
2021/12/23 00:06:19;;;;;;;27.00;15.48;;;-1.00;99.90;;;;;;5072787;28;20628;-75
2021/12/23 00:08:46;;;;;;;25.05;15.63;;;-1.00;99.90;;;;;;5072992;28;20238;-75
2021/12/23 00:11:12;;;;;;;25.65;16.50;;;-1.00;99.90;;;;;;5072606;28;20273;-75
2021/12/23 00:13:48;;;;;;;25.38;15.90;;;-1.00;99.90;;;;;;5072595;28;20185;-75
2021/12/23 00:16:18;;;;;;;24.83;15.95;;;-1.00;99.90;;;;;;5073545;28;20188;-75
2021/12/23 00:18:54;;;;;;;26.00;14.98;;;-1.00;99.90;;;;;;5076890;28;20185;-75
2021/12/23 00:24:05;;;;;;;28.05;16.65;;;-1.00;99.90;;;;;;5076688;28;20196;-75
2021/12/23 00:26:32;;;;;;;31.23;16.95;;;-1.00;99.90;;;;;;5076515;28;20244;-75
2021/12/23 00:28:59;;;;;;;28.30;16.30;;;-1.10;99.90;;;;;;5076409;28;20185;-75
2021/12/23 00:31:27;;;;;;;26.23;17.52;;;-1.10;99.90;;;;;;5076438;28;20221;-75
2021/12/23 00:33:53;;;;;;;28.30;15.95;;;-1.10;99.90;;;;;;5076471;28;20594;-75
2021/12/23 00:36:20;;;;;;;23.02;16.30;;;-1.20;99.90;;;;;;5076518;28;20633;-75
2021/12/23 00:38:51;;;;;;;26.02;15.63;;;-1.20;99.90;;;;;;5067465;28;20298;-75
2021/12/23 00:41:19;;;;;;;28.58;15.93;;;-1.20;99.90;;;;;;5074162;28;20192;-75
2021/12/23 00:43:46;;;;;;;27.65;16.30;;;-1.20;99.90;;;;;;5076032;28;20190;-75
2021/12/23 00:46:12;;;;;;;31.00;17.40;;;-1.20;99.90;;;;;;5076379;28;20197;-75
2021/12/23 00:48:41;;;;;;;32.30;17.58;;;-1.20;99.90;;;;;;5076045;28;20716;-75
2021/12/23 00:51:08;;;;;;;25.60;16.75;;;-1.20;99.90;;;;;;5076018;28;20189;-75
2021/12/23 00:53:38;;;;;;;27.83;17.10;;;-1.20;99.90;;;;;;5076002;28;20185;-75
2021/12/23 00:56:05;;;;;;;23.23;16.35;;;-1.20;99.90;;;;;;5075835;28;20645;-75
2021/12/23 00:58:32;;;;;;;25.38;16.40;;;-1.20;99.90;;;;;;5076096;28;20697;-75
2021/12/23 01:01:00;;;;;;;25.25;15.70;;;-1.20;99.90;;;;;;5076154;28;20631;-75
2021/12/23 01:03:27;;;;;;;26.65;17.15;;;-1.20;99.90;;;;;;5075828;28;20177;-75
2021/12/23 01:05:55;;;;;;;29.05;16.70;;;-1.20;99.90;;;;;;5076069;28;20275;-75
2021/12/23 01:08:22;;;;;;;26.23;16.17;;;-1.20;99.90;;;;;;5075839;28;20243;-75
2021/12/23 01:10:51;;;;;;;21.30;14.77;;;-1.20;99.90;;;;;;5076066;28;20221;-75
2021/12/23 01:13:19;;;;;;;24.85;16.90;;;-1.20;99.90;;;;;;5076120;28;20242;-75
2021/12/23 01:16:04;;;;;;;25.02;15.50;;;-1.10;99.90;;;;;;5075668;28;20660;-75
2021/12/23 01:18:36;;;;;;;27.05;16.88;;;-1.10;99.90;;;;;;5075678;28;20316;-75
2021/12/23 01:21:16;;;;;;;25.92;15.98;;;-1.10;99.90;;;;;;5075445;28;20209;-75
2021/12/23 01:23:48;;;;;;;26.40;15.82;;;-1.10;99.90;;;;;;5060850;28;20590;-75
2021/12/23 01:26:18;;;;;;;29.15;17.50;;;-1.00;99.90;;;;;;5075649;28;20182;-75
2021/12/23 01:28:46;;;;;;;26.90;15.60;;;-1.00;99.90;;;;;;5075046;28;20193;-75
2021/12/23 01:31:12;;;;;;;21.63;15.85;;;-1.00;99.90;;;;;;5075217;28;20217;-75
2021/12/23 01:33:39;;;;;;;27.88;16.77;;;-1.00;99.90;;;;;;5075203;28;20723;-75
2021/12/23 01:36:07;;;;;;;24.67;16.60;;;-1.00;99.90;;;;;;5074610;28;20221;-75
2021/12/23 01:38:34;;;;;;;28.17;16.75;;;-1.00;99.90;;;;;;5073753;28;20654;-75
2021/12/23 01:41:00;;;;;;;28.02;16.85;;;-1.10;99.90;;;;;;5073480;28;20276;-75
2021/12/23 01:43:27;;;;;;;26.58;14.90;;;-1.00;99.90;;;;;;5075057;28;20192;-75
2021/12/23 01:45:53;;;;;;;24.25;15.75;;;-1.00;99.90;;;;;;5075360;28;20203;-75
2021/12/23 01:48:21;;;;;;;27.73;18.17;;;-1.10;99.90;;;;;;5075438;28;20593;-75
2021/12/23 01:50:48;;;;;;;27.15;16.15;;;-1.00;99.90;;;;;;5075442;28;20280;-75
2021/12/23 01:53:17;;;;;;;22.73;15.38;;;-1.10;99.90;;;;;;5075240;28;20276;-75
2021/12/23 01:55:43;;;;;;;29.50;19.20;;;-1.00;99.90;;;;;;5075122;28;20712;-75
2021/12/23 01:58:11;;;;;;;25.60;16.85;;;-1.00;99.90;;;;;;5075063;28;20719;-75
2021/12/23 02:00:40;;;;;;;26.40;16.13;;;-1.00;99.90;;;;;;5074995;28;20254;-75
2021/12/23 02:03:06;;;;;;;26.80;17.13;;;-1.00;99.90;;;;;;5075134;28;20281;-75
2021/12/23 02:05:33;;;;;;;28.08;17.15;;;-1.00;99.90;;;;;;5092485;28;20238;-75
2021/12/23 02:08:00;;;;;;;28.35;16.50;;;-1.00;99.90;;;;;;5095170;28;20279;-75
2021/12/23 02:10:29;;;;;;;26.33;15.95;;;-1.00;99.90;;;;;;5094985;28;20545;-75
2021/12/23 02:12:58;;;;;;;31.88;17.38;;;-1.00;99.90;;;;;;5095086;28;20279;-75
2021/12/23 02:15:25;;;;;;;24.15;16.30;;;-1.00;99.90;;;;;;5095109;28;20188;-75
2021/12/23 02:17:52;;;;;;;30.33;17.35;;;-1.00;99.90;;;;;;5095317;28;20622;-75
2021/12/23 02:20:21;;;;;;;26.40;16.00;;;-1.00;99.90;;;;;;5094765;28;20231;-76
2021/12/23 02:22:48;;;;;;;25.52;16.98;;;-1.00;99.90;;;;;;5094958;28;20279;-75
2021/12/23 02:25:16;;;;;;;26.23;17.42;;;-1.00;99.90;;;;;;5094661;28;20687;-75
2021/12/23 02:27:43;;;;;;;27.40;17.42;;;-1.00;99.90;;;;;;5095035;28;20196;-75
2021/12/23 02:30:12;;;;;;;26.73;16.63;;;-1.00;99.90;;;;;;5094744;28;20280;-75
2021/12/23 02:32:39;;;;;;;25.52;16.30;;;-1.00;99.90;;;;;;5094838;28;20235;-75
2021/12/23 02:35:10;;;;;;;26.00;16.55;;;-1.00;99.90;;;;;;5094490;28;20220;-75
2021/12/23 02:37:38;;;;;;;26.48;16.20;;;-1.00;99.90;;;;;;5094587;28;20303;-75
2021/12/23 02:40:08;;;;;;;20.58;15.40;;;-1.00;99.90;;;;;;5093584;28;20283;-75
2021/12/23 02:42:34;;;;;;;30.55;17.63;;;-1.00;99.90;;;;;;5091837;28;20265;-75
2021/12/23 02:45:01;;;;;;;24.05;15.85;;;-1.00;99.90;;;;;;5074244;28;20284;-75
2021/12/23 02:47:28;;;;;;;27.42;17.88;;;-1.00;99.90;;;;;;5074366;28;20555;-75
2021/12/23 02:49:54;;;;;;;28.83;17.38;;;-1.00;99.90;;;;;;5074038;28;20217;-75
2021/12/23 02:52:21;;;;;;;28.20;17.00;;;-1.00;99.90;;;;;;5074010;28;20284;-75
2021/12/23 02:54:56;;;;;;;27.52;17.55;;;-1.10;99.90;;;;;;5073920;28;20280;-75
2021/12/23 02:57:23;;;;;;;25.35;16.70;;;-1.00;99.90;;;;;;5074138;28;20193;-75
2021/12/23 02:59:49;;;;;;;28.83;16.88;;;-1.00;99.90;;;;;;5073994;28;20652;-75
2021/12/23 03:02:16;;;;;;;25.52;15.80;;;-1.00;99.90;;;;;;5073902;28;20221;-75
2021/12/23 03:04:43;;;;;;;27.23;16.45;;;-1.00;99.90;;;;;;5073833;28;20189;-75
2021/12/23 03:07:09;;;;;;;24.27;17.27;;;-1.00;99.90;;;;;;5073837;28;20225;-75
2021/12/23 03:09:36;;;;;;;27.10;17.15;;;-1.00;99.90;;;;;;5073897;28;20281;-75
2021/12/23 03:12:04;;;;;;;32.72;16.98;;;-1.00;99.90;;;;;;5073550;28;20751;-75
2021/12/23 03:14:31;;;;;;;28.33;16.48;;;-1.00;99.90;;;;;;5073671;28;20276;-75
2021/12/23 03:16:57;;;;;;;28.95;18.58;;;-0.90;99.90;;;;;;5073516;28;20281;-75
2021/12/23 03:19:24;;;;;;;27.27;16.45;;;-0.90;99.90;;;;;;5073518;28;20311;-75
2021/12/23 03:21:50;;;;;;;27.42;17.40;;;-0.90;99.90;;;;;;5073371;28;20271;-75
2021/12/23 03:24:19;;;;;;;28.40;16.75;;;-0.90;99.90;;;;;;5073592;28;20213;-75
2021/12/23 03:26:46;;;;;;;26.90;16.58;;;-0.90;99.90;;;;;;5073459;28;20185;-75
2021/12/23 03:29:14;;;;;;;26.13;15.90;;;-0.90;99.90;;;;;;5073446;28;20292;-75
2021/12/23 03:31:41;;;;;;;26.90;17.58;;;-0.90;99.90;;;;;;5073443;28;20526;-75
2021/12/23 03:34:07;;;;;;;31.90;18.55;;;-0.90;99.90;;;;;;5073175;28;20630;-75
2021/12/23 03:36:34;;;;;;;26.08;16.77;;;-0.90;99.90;;;;;;5073070;28;20687;-75
2021/12/23 03:39:01;;;;;;;27.00;17.95;;;-0.90;99.90;;;;;;5073204;28;20323;-75
2021/12/23 03:41:27;;;;;;;23.42;17.23;;;-0.80;99.90;;;;;;5073222;28;20240;-75
2021/12/23 03:43:54;;;;;;;27.33;18.98;;;-0.80;99.90;;;;;;5073171;28;20189;-75
2021/12/23 03:46:22;;;;;;;25.38;17.27;;;-0.80;99.90;;;;;;5073096;28;20280;-75
2021/12/23 03:48:48;;;;;;;25.88;16.60;;;-0.80;99.90;;;;;;5073121;28;20284;-75
2021/12/23 03:51:15;;;;;;;27.15;16.67;;;-0.80;99.90;;;;;;5073055;28;20276;-75
2021/12/23 03:53:42;;;;;;;30.10;18.30;;;-0.80;99.90;;;;;;5073083;28;20216;-75
2021/12/23 03:56:08;;;;;;;27.48;17.33;;;-0.80;99.90;;;;;;5073063;28;20618;-75
2021/12/23 03:58:35;;;;;;;29.95;18.20;;;-0.80;99.90;;;;;;5072991;28;20244;-75
2021/12/23 04:01:01;;;;;;;28.13;17.90;;;-0.90;99.90;;;;;;5073015;28;20276;-75
2021/12/23 04:03:29;;;;;;;30.08;17.45;;;-0.90;99.90;;;;;;5072894;28;20225;-75
2021/12/23 04:05:56;;;;;;;32.22;17.77;;;-0.90;99.90;;;;;;5072971;28;20280;-75
2021/12/23 04:08:23;;;;;;;30.17;19.05;;;-0.90;99.90;;;;;;5073062;28;20288;-75
2021/12/23 04:10:49;;;;;;;29.88;18.10;;;-0.90;99.90;;;;;;5072904;28;20642;-75
2021/12/23 04:13:16;;;;;;;28.30;18.17;;;-0.90;99.90;;;;;;5072957;28;20227;-75
2021/12/23 04:15:42;;;;;;;31.65;20.13;;;-1.00;99.90;;;;;;5072783;28;20225;-75
2021/12/23 04:18:09;;;;;;;27.33;17.88;;;-1.00;99.90;;;;;;5072783;28;20366;-75
2021/12/23 04:20:46;;;;;;;29.00;18.33;;;-1.00;99.90;;;;;;5072672;28;20793;-75
2021/12/23 04:23:13;;;;;;;31.58;18.85;;;-1.00;99.90;;;;;;5072973;28;20565;-75
2021/12/23 04:25:39;;;;;;;30.08;18.30;;;-1.00;99.90;;;;;;5072642;28;20232;-75
2021/12/23 04:28:06;;;;;;;32.28;19.75;;;-1.00;99.90;;;;;;5072742;28;20292;-75
2021/12/23 04:30:33;;;;;;;28.95;18.10;;;-0.90;99.90;;;;;;5072571;28;20228;-75
2021/12/23 04:33:00;;;;;;;29.95;18.60;;;-0.90;99.90;;;;;;5072760;28;20227;-75
2021/12/23 04:35:26;;;;;;;29.52;17.50;;;-0.90;99.90;;;;;;5072624;28;20692;-75
2021/12/23 04:37:54;;;;;;;33.30;20.00;;;-0.90;99.90;;;;;;5072597;28;20228;-75
2021/12/23 04:40:21;;;;;;;38.13;18.42;;;-0.90;99.90;;;;;;5072677;28;20217;-75
2021/12/23 04:42:48;;;;;;;32.17;18.40;;;-0.90;99.90;;;;;;5072487;28;20205;-76
2021/12/23 04:45:14;;;;;;;30.05;18.45;;;-0.80;99.90;;;;;;5072454;28;20295;-75
2021/12/23 04:47:42;;;;;;;29.98;18.63;;;-0.80;99.90;;;;;;5072654;28;20708;-75
2021/12/23 04:50:11;;;;;;;29.02;18.08;;;-0.80;99.90;;;;;;5072729;28;20285;-75
2021/12/23 04:52:38;;;;;;;29.63;19.70;;;-0.80;99.90;;;;;;5072630;28;20228;-75
2021/12/23 04:55:08;;;;;;;38.30;19.58;;;-0.70;99.90;;;;;;5072618;28;20674;-75
2021/12/23 04:57:34;;;;;;;28.63;18.05;;;-0.70;99.90;;;;;;5072331;28;20277;-75
2021/12/23 05:00:01;;;;;;;28.88;17.23;;;-0.70;99.90;;;;;;5072460;28;20571;-75
2021/12/23 05:02:28;;;;;;;29.00;18.70;;;-0.70;99.90;;;;;;5073910;28;20197;-75
2021/12/23 05:04:54;;;;;;;34.05;20.08;;;-0.70;99.90;;;;;;5076262;28;20284;-75
2021/12/23 05:07:21;;;;;;;32.63;18.35;;;-0.70;99.90;;;;;;5076082;28;20258;-75
2021/12/23 05:09:48;;;;;;;28.88;19.33;;;-0.60;99.90;;;;;;5076046;28;20279;-75
2021/12/23 05:12:16;;;;;;;30.88;19.33;;;-0.60;99.90;;;;;;5075886;28;20192;-75
2021/12/23 05:14:42;;;;;;;25.90;16.98;;;-0.60;99.90;;;;;;5076189;28;20268;-75
2021/12/23 05:17:09;;;;;;;35.22;18.88;;;-0.60;99.90;;;;;;5075878;28;20276;-75
2021/12/23 05:19:36;;;;;;;25.75;16.70;;;-0.50;99.90;;;;;;5075957;28;20304;-75
2021/12/23 05:22:02;;;;;;;29.10;19.73;;;-0.50;99.90;;;;;;5075590;28;20305;-75
2021/12/23 05:24:29;;;;;;;30.92;18.58;;;-0.50;99.90;;;;;;5075730;28;20356;-76
2021/12/23 05:26:55;;;;;;;31.73;18.98;;;-0.50;99.90;;;;;;5075540;28;20189;-75
2021/12/23 05:29:23;;;;;;;24.63;16.50;;;-0.50;99.90;;;;;;5075791;28;20289;-75
2021/12/23 05:31:50;;;;;;;29.67;18.17;;;-0.50;99.90;;;;;;5075673;28;20296;-75
2021/12/23 05:34:16;;;;;;;30.85;17.75;;;-0.40;99.90;;;;;;5075649;28;20244;-75
2021/12/23 05:36:43;;;;;;;27.83;17.30;;;-0.40;99.90;;;;;;5075544;28;20693;-75
2021/12/23 05:39:10;;;;;;;30.08;17.23;;;-0.30;99.90;;;;;;5075330;28;20262;-75
2021/12/23 05:41:37;;;;;;;33.13;18.63;;;-0.30;99.90;;;;;;5075537;28;20217;-75
2021/12/23 05:44:04;;;;;;;28.25;18.35;;;-0.30;99.90;;;;;;5075467;28;20282;-75
2021/12/23 05:46:32;;;;;;;29.33;19.58;;;-0.30;99.90;;;;;;5075401;28;20229;-75
2021/12/23 05:48:59;;;;;;;26.70;18.08;;;-0.30;99.90;;;;;;5075275;28;20305;-75
2021/12/23 05:51:25;;;;;;;23.40;17.83;;;-0.30;99.90;;;;;;5075280;28;20276;-75
2021/12/23 05:53:52;;;;;;;27.75;17.63;;;-0.30;99.90;;;;;;5075069;28;20280;-75
2021/12/23 05:56:19;;;;;;;27.88;18.60;;;-0.30;99.90;;;;;;5075330;28;20280;-75
2021/12/23 05:58:45;;;;;;;40.67;22.77;;;-0.20;99.90;;;;;;5075155;28;20303;-75
2021/12/23 06:01:12;;;;;;;27.15;18.10;;;-0.20;99.90;;;;;;5075114;28;20236;-75
2021/12/23 06:03:41;;;;;;;29.50;18.25;;;-0.20;99.90;;;;;;5075032;28;20224;-75
2021/12/23 06:06:08;;;;;;;26.02;16.90;;;-0.20;99.90;;;;;;5074986;28;20197;-75
2021/12/23 06:08:34;;;;;;;31.02;17.80;;;-0.20;99.90;;;;;;5075046;28;20281;-75
2021/12/23 06:11:01;;;;;;;28.35;18.25;;;-0.20;99.90;;;;;;5075274;28;20276;-75
2021/12/23 06:13:27;;;;;;;29.90;19.42;;;-0.20;99.90;;;;;;5073798;28;20620;-75
2021/12/23 06:15:54;;;;;;;30.30;18.13;;;-0.20;99.90;;;;;;5074818;28;20288;-75
2021/12/23 06:18:20;;;;;;;26.67;16.85;;;-0.20;99.90;;;;;;5074647;28;20239;-75
2021/12/23 06:20:48;;;;;;;28.88;17.98;;;-0.10;99.90;;;;;;5074451;28;20259;-75
2021/12/23 06:23:16;;;;;;;27.55;18.15;;;-0.10;99.90;;;;;;5074559;28;20211;-76
2021/12/23 06:25:42;;;;;;;28.65;17.55;;;-0.10;99.90;;;;;;5074729;28;20196;-75
2021/12/23 06:28:09;;;;;;;27.85;18.38;;;-0.10;99.90;;;;;;5074606;28;20236;-75
2021/12/23 06:30:36;;;;;;;30.55;18.73;;;0.00;99.90;;;;;;5074569;28;20319;-75
2021/12/23 06:33:02;;;;;;;27.83;17.10;;;0.00;99.90;;;;;;5074454;28;20277;-75
2021/12/23 06:35:31;;;;;;;29.33;18.42;;;0.00;99.90;;;;;;5074517;28;20217;-75
2021/12/23 06:38:03;;;;;;;25.63;16.58;;;0.00;99.90;;;;;;5074464;28;20190;-75
2021/12/23 06:40:30;;;;;;;25.73;17.17;;;0.00;99.90;;;;;;5074435;28;20256;-75
2021/12/23 06:42:56;;;;;;;29.00;16.50;;;0.00;99.90;;;;;;5074228;28;20296;-75
2021/12/23 06:45:23;;;;;;;28.95;17.98;;;0.10;99.90;;;;;;5074281;28;20221;-75
2021/12/23 06:47:50;;;;;;;27.75;17.38;;;0.10;99.90;;;;;;5074107;28;20243;-76
2021/12/23 06:50:18;;;;;;;27.55;18.10;;;0.10;99.90;;;;;;5074312;28;20292;-75
2021/12/23 06:52:46;;;;;;;28.70;17.40;;;0.10;99.90;;;;;;5074151;28;20193;-75
2021/12/23 06:55:14;;;;;;;24.00;16.80;;;0.00;99.90;;;;;;5074168;28;20246;-75
2021/12/23 06:57:43;;;;;;;31.63;17.27;;;0.10;99.90;;;;;;5074032;28;20213;-75
2021/12/23 07:00:14;;;;;;;26.77;17.48;;;0.10;99.90;;;;;;5073783;28;20209;-75
2021/12/23 07:02:41;;;;;;;30.20;16.83;;;0.10;99.90;;;;;;5073864;28;20197;-75
2021/12/23 07:05:09;;;;;;;33.20;17.30;;;0.10;99.90;;;;;;5073998;28;20193;-75
2021/12/23 07:07:42;;;;;;;28.38;18.05;;;0.20;99.90;;;;;;5073887;28;20189;-75
2021/12/23 07:10:10;;;;;;;25.08;16.08;;;0.20;99.90;;;;;;5073805;28;20640;-75
2021/12/23 07:12:38;;;;;;;25.20;17.08;;;0.20;99.90;;;;;;5073626;28;20225;-75
2021/12/23 07:15:05;;;;;;;26.70;16.70;;;0.20;99.90;;;;;;5073546;28;20231;-75
2021/12/23 07:17:32;;;;;;;26.95;17.05;;;0.20;99.90;;;;;;5073717;28;20603;-75
2021/12/23 07:19:58;;;;;;;28.88;17.58;;;0.20;99.90;;;;;;5073844;28;20319;-75
2021/12/23 07:22:25;;;;;;;30.80;17.48;;;0.20;99.90;;;;;;5073694;28;20303;-75
2021/12/23 07:24:51;;;;;;;29.75;18.08;;;0.30;99.90;;;;;;5073008;28;20699;-75
2021/12/23 07:27:18;;;;;;;26.67;17.73;;;0.30;99.90;;;;;;5073449;28;20619;-75
2021/12/23 07:29:46;;;;;;;29.20;17.83;;;0.40;99.90;;;;;;5073156;28;20194;-75
2021/12/23 07:32:12;;;;;;;26.80;16.85;;;0.40;99.90;;;;;;5073941;28;20609;-75
2021/12/23 07:34:40;;;;;;;23.33;16.08;;;0.40;99.90;;;;;;5073320;28;20280;-75
2021/12/23 07:37:07;;;;;;;29.48;18.55;;;0.40;99.90;;;;;;5073211;28;20690;-75
2021/12/23 07:39:34;;;;;;;27.17;16.40;;;0.40;99.90;;;;;;5073104;28;20895;-76
2021/12/23 07:42:00;;;;;;;29.88;17.63;;;0.40;99.90;;;;;;5073263;28;20224;-76
2021/12/23 07:44:27;;;;;;;24.42;15.60;;;0.40;99.90;;;;;;5073303;28;20660;-75
2021/12/23 07:46:55;;;;;;;38.25;19.13;;;0.40;99.90;;;;;;5073453;28;20279;-75
2021/12/23 07:49:21;;;;;;;27.98;17.73;;;0.40;99.90;;;;;;5073234;28;20219;-75
2021/12/23 07:51:48;;;;;;;29.83;17.98;;;0.40;99.90;;;;;;5073258;28;20664;-75
2021/12/23 07:54:14;;;;;;;29.38;17.88;;;0.40;99.90;;;;;;5073032;28;20193;-75
2021/12/23 07:56:41;;;;;;;23.80;15.40;;;0.40;99.90;;;;;;5073126;28;20284;-75
2021/12/23 07:59:07;;;;;;;30.05;16.70;;;0.50;99.90;;;;;;5073064;28;20213;-76
2021/12/23 08:01:34;;;;;;;27.73;16.98;;;0.40;99.90;;;;;;5073056;28;20228;-75
2021/12/23 08:04:02;;;;;;;23.23;15.02;;;0.50;99.90;;;;;;5073207;28;20251;-75
2021/12/23 08:06:28;;;;;;;23.65;16.67;;;0.50;99.90;;;;;;5072926;28;20688;-75
2021/12/23 08:08:55;;;;;;;27.77;15.95;;;0.60;99.90;;;;;;5072797;28;20231;-75
2021/12/23 08:11:22;;;;;;;28.92;16.90;;;0.60;99.90;;;;;;5072798;28;20614;-75
2021/12/23 08:13:48;;;;;;;25.23;15.43;;;0.60;99.90;;;;;;5072950;28;20280;-75
2021/12/23 08:16:15;;;;;;;25.25;17.55;;;0.70;99.90;;;;;;5073041;28;20276;-75
2021/12/23 08:18:42;;;;;;;30.40;16.20;;;0.70;99.90;;;;;;5072802;28;20328;-75
2021/12/23 08:21:10;;;;;;;27.17;16.30;;;0.70;99.90;;;;;;5072598;28;20271;-75
2021/12/23 08:23:37;;;;;;;31.48;16.50;;;0.90;99.90;;;;;;5072749;28;20602;-76
2021/12/23 08:26:10;;;;;;;28.05;17.20;;;0.70;99.90;;;;;;5073189;28;20194;-75
2021/12/23 08:28:37;;;;;;;24.35;16.27;;;0.70;99.90;;;;;;5072836;28;20203;-75
2021/12/23 08:31:04;;;;;;;28.70;18.17;;;0.80;99.90;;;;;;5072829;28;20285;-75
2021/12/23 08:33:30;;;;;;;32.40;16.70;;;0.80;99.90;;;;;;5072697;28;20189;-75
2021/12/23 08:35:57;;;;;;;32.10;16.80;;;0.90;99.90;;;;;;5072767;28;20280;-75
2021/12/23 08:38:24;;;;;;;25.27;16.10;;;0.90;99.90;;;;;;5075713;28;20620;-75
2021/12/23 08:40:51;;;;;;;23.58;15.98;;;0.90;99.90;;;;;;5076686;28;20248;-75
2021/12/23 08:43:18;;;;;;;27.52;15.40;;;0.90;99.90;;;;;;5076693;28;20548;-75
2021/12/23 08:45:44;;;;;;;22.65;15.05;;;1.00;99.90;;;;;;5076552;28;20280;-75
2021/12/23 08:48:11;;;;;;;26.58;16.65;;;1.00;99.90;;;;;;5076565;28;20235;-75
2021/12/23 08:50:38;;;;;;;22.65;15.60;;;1.00;99.90;;;;;;5076451;28;20621;-75
2021/12/23 08:53:04;;;;;;;29.02;15.50;;;1.00;99.90;;;;;;5076348;28;20284;-75
2021/12/23 08:55:33;;;;;;;23.35;15.25;;;1.00;99.90;;;;;;5076186;28;20671;-75
2021/12/23 08:58:03;;;;;;;24.42;15.70;;;1.00;99.90;;;;;;5076481;28;20213;-75
2021/12/23 09:00:31;;;;;;;19.83;14.55;;;1.10;99.90;;;;;;5076124;28;20216;-75
2021/12/23 09:02:58;;;;;;;24.75;16.33;;;1.10;99.90;;;;;;5076225;28;20189;-75
2021/12/23 09:05:25;;;;;;;28.88;17.65;;;1.10;99.90;;;;;;5075800;28;20283;-75
2021/12/23 09:07:52;;;;;;;25.13;16.02;;;1.10;99.90;;;;;;5076306;28;20292;-75
2021/12/23 09:10:19;;;;;;;29.08;16.45;;;1.20;99.90;;;;;;5076127;28;20342;-75
2021/12/23 09:12:47;;;;;;;28.92;15.05;;;1.30;99.90;;;;;;5076211;28;20247;-75
2021/12/23 09:15:14;;;;;;;22.55;15.10;;;1.30;99.90;;;;;;5075947;28;20634;-75
2021/12/23 09:17:41;;;;;;;24.42;15.10;;;1.40;99.90;;;;;;5076190;28;20232;-75
2021/12/23 09:20:10;;;;;;;26.42;15.20;;;1.40;99.90;;;;;;5075759;28;20308;-75
2021/12/23 09:22:37;;;;;;;24.65;15.50;;;1.40;99.90;;;;;;5075652;28;20221;-75
2021/12/23 09:25:10;;;;;;;21.40;15.38;;;1.40;99.90;;;;;;5075871;28;20200;-75
2021/12/23 09:27:41;;;;;;;25.55;16.20;;;1.50;99.90;;;;;;5076050;28;20189;-75
2021/12/23 09:32:56;;;;;;;21.33;14.65;;;1.60;99.90;;;;;;5075761;28;20192;-76
2021/12/23 09:35:25;;;;;;;25.05;15.20;;;1.60;99.90;;;;;;5075746;28;20189;-75
2021/12/23 09:37:52;;;;;;;23.13;15.70;;;1.70;99.90;;;;;;5074736;28;20189;-75
2021/12/23 09:40:19;;;;;;;23.58;15.25;;;1.70;99.90;;;;;;5075412;28;20304;-75
2021/12/23 09:42:48;;;;;;;19.63;13.45;;;1.80;99.90;;;;;;5075361;28;20587;-76
2021/12/23 09:45:18;;;;;;;21.38;15.70;;;1.90;99.90;;;;;;5075313;28;20276;-75
2021/12/23 09:47:49;;;;;;;23.65;15.45;;;2.00;99.90;;;;;;5075064;28;20225;-75
2021/12/23 09:50:18;;;;;;;21.77;14.57;;;2.00;99.90;;;;;;5075354;28;20189;-75
2021/12/23 09:52:47;;;;;;;22.75;14.65;;;2.00;99.90;;;;;;5075336;28;20225;-75
2021/12/23 09:55:16;;;;;;;26.10;14.52;;;2.10;99.90;;;;;;5075158;28;20220;-75
2021/12/23 09:57:48;;;;;;;26.67;15.70;;;2.10;99.90;;;;;;5075402;28;20189;-75
2021/12/23 10:00:18;;;;;;;24.10;13.98;;;2.10;99.90;;;;;;5074883;28;20518;-75
2021/12/23 10:02:45;;;;;;;22.00;13.98;;;2.10;99.90;;;;;;5075057;28;20284;-75
2021/12/23 10:05:14;;;;;;;21.88;14.32;;;2.20;99.90;;;;;;5075023;28;20612;-75
2021/12/23 10:07:43;;;;;;;22.42;14.80;;;2.30;99.90;;;;;;5075080;28;20193;-75
2021/12/23 10:10:15;;;;;;;19.92;14.25;;;2.20;99.90;;;;;;5074779;28;20207;-75
2021/12/23 10:32:51;;;;;;;20.85;13.50;;;2.40;99.90;;;;;;5074566;28;20231;-75
2021/12/23 10:38:08;;;;;;;22.15;14.48;;;2.40;99.90;;;;;;5053201;28;20185;-75
2021/12/23 10:40:36;;;;;;;21.88;13.60;;;2.50;99.90;;;;;;5074255;28;20317;-75
2021/12/23 10:43:02;;;;;;;17.88;12.25;;;2.40;99.90;;;;;;5074310;28;20213;-75
2021/12/23 10:45:36;;;;;;;22.48;13.65;;;2.50;99.90;;;;;;5074164;28;20189;-75
2021/12/23 10:48:10;;;;;;;20.15;13.77;;;2.50;99.90;;;;;;5074169;28;20645;-75
2021/12/23 10:50:42;;;;;;;21.95;13.02;;;2.50;99.90;;;;;;5074262;28;20530;-75
2021/12/23 10:53:14;;;;;;;19.63;14.18;;;2.60;99.90;;;;;;5074198;28;20283;-75
2021/12/23 10:58:26;;;;;;;16.48;12.85;;;2.60;99.90;;;;;;5074038;28;20547;-75
2021/12/23 11:00:56;;;;;;;21.27;14.05;;;2.70;99.90;;;;;;5073227;28;20591;-75
2021/12/23 11:03:29;;;;;;;20.55;12.75;;;2.60;99.90;;;;;;5073959;28;20235;-75
2021/12/23 11:06:04;;;;;;;19.05;13.80;;;2.70;99.90;;;;;;5073870;28;20280;-75
2021/12/23 11:08:40;;;;;;;17.17;12.10;;;2.70;99.90;;;;;;5073855;28;20193;-75
2021/12/23 11:28:09;;;;;;;18.77;13.35;;;2.70;99.90;;;;;;5073502;28;20238;-75
2021/12/23 11:32:00;;;;;;;17.90;12.13;;;2.60;99.90;;;;;;5073391;28;20232;-75
2021/12/23 11:37:04;;;;;;;19.42;13.27;;;2.70;99.90;;;;;;5073104;28;20186;-75
2021/12/23 11:39:45;;;;;;;19.63;12.60;;;2.70;99.90;;;;;;5073291;28;20652;-75
2021/12/23 11:42:24;;;;;;;17.95;12.93;;;2.70;99.90;;;;;;5073338;28;20246;-75
2021/12/23 11:44:52;;;;;;;16.48;12.18;;;2.80;99.90;;;;;;5073372;28;20193;-75
2021/12/23 11:47:19;;;;;;;18.88;13.82;;;2.90;99.90;;;;;;5073138;28;20276;-75
2021/12/23 11:49:48;;;;;;;18.75;12.57;;;2.80;99.90;;;;;;5073089;28;20698;-75
2021/12/23 11:52:16;;;;;;;21.88;13.27;;;2.80;99.90;;;;;;5072956;28;20193;-75
2021/12/23 11:54:45;;;;;;;20.35;13.60;;;2.90;99.90;;;;;;5073203;28;20192;-75
2021/12/23 11:57:16;;;;;;;20.77;13.55;;;2.80;99.90;;;;;;5073039;28;20235;-75
2021/12/23 11:59:46;;;;;;;19.95;12.75;;;2.80;99.90;;;;;;5073173;28;20220;-75
2021/12/23 12:02:16;;;;;;;17.58;13.07;;;2.80;99.90;;;;;;5072808;28;20307;-75
2021/12/23 12:04:43;;;;;;;22.13;14.88;;;2.80;99.90;;;;;;5072909;28;20687;-75
2021/12/23 12:07:14;;;;;;;19.38;13.68;;;2.90;99.90;;;;;;5072718;28;20690;-75
2021/12/23 12:09:57;;;;;;;20.42;12.20;;;2.80;99.90;;;;;;5073108;28;20280;-75
2021/12/23 12:12:24;;;;;;;19.63;13.45;;;2.80;99.90;;;;;;5072869;28;20296;-75
2021/12/23 12:14:51;;;;;;;22.05;13.15;;;2.80;99.90;;;;;;5072948;28;20224;-75
2021/12/23 12:17:36;;;;;;;17.08;12.85;;;2.90;99.90;;;;;;5073047;28;20193;-75
2021/12/23 12:20:10;;;;;;;20.40;13.38;;;2.90;99.90;;;;;;5072851;28;20193;-75
2021/12/23 12:22:53;;;;;;;17.10;12.35;;;3.00;99.90;;;;;;5072638;28;20587;-75
2021/12/23 12:25:52;;;;;;;20.58;12.85;;;3.10;99.90;;;;;;5072766;28;20193;-75
2021/12/23 12:28:23;;;;;;;16.60;13.45;;;3.20;99.90;;;;;;5039074;28;20276;-75
2021/12/23 12:30:52;;;;;;;18.90;13.30;;;3.30;99.90;;;;;;5072711;28;20372;-75
2021/12/23 12:33:45;;;;;;;19.20;12.93;;;3.30;99.90;;;;;;5072670;28;20284;-75
2021/12/23 12:36:15;;;;;;;17.23;11.43;;;3.40;99.90;;;;;;5072758;28;20208;-76
2021/12/23 12:38:46;;;;;;;16.05;11.30;;;3.40;99.90;;;;;;5072829;28;20189;-75
2021/12/23 12:41:17;;;;;;;20.17;13.27;;;3.50;99.90;;;;;;5072484;28;20221;-75
2021/12/23 12:43:58;;;;;;;18.80;11.85;;;3.50;99.90;;;;;;5072607;28;20533;-75
2021/12/23 12:47:04;;;;;;;15.57;11.25;;;3.60;99.90;;;;;;5072408;28;20656;-75
2021/12/23 12:49:35;;;;;;;13.20;10.48;;;3.50;99.90;;;;;;5070743;28;20262;-75
2021/12/23 12:52:16;;;;;;;18.98;11.23;;;3.60;99.90;;;;;;5072529;28;20267;-75
2021/12/23 12:54:48;;;;;;;15.63;10.77;;;3.50;99.90;;;;;;5072475;28;20185;-75
2021/12/23 12:57:19;;;;;;;15.75;9.90;;;3.50;99.90;;;;;;5072676;28;20289;-75
2021/12/23 12:59:47;;;;;;;14.00;11.30;;;3.50;99.90;;;;;;5072629;28;20267;-75
2021/12/23 13:02:27;;;;;;;17.17;11.57;;;3.50;99.90;;;;;;5072371;28;20676;-75
2021/12/23 13:05:03;;;;;;;16.63;12.05;;;3.40;99.90;;;;;;5072538;28;20189;-76
2021/12/23 13:07:34;;;;;;;21.48;11.48;;;3.30;99.90;;;;;;5072562;28;20189;-75
2021/12/23 13:10:07;;;;;;;17.50;11.68;;;3.20;99.90;;;;;;5072611;28;20284;-76
2021/12/23 13:12:46;;;;;;;15.98;9.75;;;3.20;99.90;;;;;;5072348;28;20193;-75
2021/12/23 13:15:19;;;;;;;17.60;12.00;;;3.20;99.90;;;;;;5072334;28;20285;-75
2021/12/23 13:17:58;;;;;;;16.23;11.60;;;3.20;99.90;;;;;;5072139;28;20196;-75
2021/12/23 13:20:44;;;;;;;15.50;11.60;;;3.10;99.90;;;;;;5072089;28;20189;-76
2021/12/23 13:23:15;;;;;;;14.63;9.70;;;3.10;99.90;;;;;;5073378;28;20521;-75
2021/12/23 13:25:50;;;;;;;13.80;10.90;;;3.10;99.90;;;;;;5075873;28;20215;-76
2021/12/23 13:28:33;;;;;;;16.55;11.38;;;3.10;99.90;;;;;;5075920;28;20221;-76
2021/12/23 13:31:01;;;;;;;17.38;12.35;;;3.10;99.90;;;;;;5075796;28;20234;-75